sensor_id;sensor_type;location;lat;lon;timestamp;temperature;humidity
75893;DHT22;64572;50.950;3.676;2023-03-01T00:01:34;1.10;91.20
75893;DHT22;64572;50.950;3.676;2023-03-01T00:04:00;1.10;90.90
75893;DHT22;64572;50.950;3.676;2023-03-01T00:06:26;1.10;91.20
75893;DHT22;64572;50.950;3.676;2023-03-01T00:08:52;1.00;91.20
75893;DHT22;64572;50.950;3.676;2023-03-01T00:11:21;1.00;91.20
75893;DHT22;64572;50.950;3.676;2023-03-01T00:13:49;0.90;91.50
75893;DHT22;64572;50.950;3.676;2023-03-01T00:16:20;0.90;91.40
75893;DHT22;64572;50.950;3.676;2023-03-01T00:18:46;0.90;91.40
75893;DHT22;64572;50.950;3.676;2023-03-01T00:21:12;0.80;92.70
75893;DHT22;64572;50.950;3.676;2023-03-01T00:23:39;0.80;92.30
75893;DHT22;64572;50.950;3.676;2023-03-01T00:26:10;0.80;92.20
75893;DHT22;64572;50.950;3.676;2023-03-01T00:28:36;0.70;92.20
75893;DHT22;64572;50.950;3.676;2023-03-01T00:31:05;0.60;92.20
75893;DHT22;64572;50.950;3.676;2023-03-01T00:33:31;0.70;91.80
75893;DHT22;64572;50.950;3.676;2023-03-01T00:36:00;0.60;92.60
75893;DHT22;64572;50.950;3.676;2023-03-01T00:38:26;0.60;92.80
75893;DHT22;64572;50.950;3.676;2023-03-01T00:40:52;0.60;92.70
75893;DHT22;64572;50.950;3.676;2023-03-01T00:43:18;0.60;92.50
75893;DHT22;64572;50.950;3.676;2023-03-01T00:45:44;0.60;92.40
75893;DHT22;64572;50.950;3.676;2023-03-01T00:48:10;0.50;92.80
75893;DHT22;64572;50.950;3.676;2023-03-01T00:50:35;0.40;92.90
75893;DHT22;64572;50.950;3.676;2023-03-01T00:53:01;0.40;92.90
75893;DHT22;64572;50.950;3.676;2023-03-01T00:55:27;0.30;93.10
75893;DHT22;64572;50.950;3.676;2023-03-01T00:57:53;0.30;92.50
75893;DHT22;64572;50.950;3.676;2023-03-01T01:00:19;0.40;92.30
75893;DHT22;64572;50.950;3.676;2023-03-01T01:02:45;0.40;92.00
75893;DHT22;64572;50.950;3.676;2023-03-01T01:05:12;0.40;92.20
75893;DHT22;64572;50.950;3.676;2023-03-01T01:07:38;0.40;92.00
75893;DHT22;64572;50.950;3.676;2023-03-01T01:10:05;0.40;92.40
75893;DHT22;64572;50.950;3.676;2023-03-01T01:12:32;0.40;92.30
75893;DHT22;64572;50.950;3.676;2023-03-01T01:14:57;0.40;92.40
75893;DHT22;64572;50.950;3.676;2023-03-01T01:17:23;0.40;92.30
75893;DHT22;64572;50.950;3.676;2023-03-01T01:19:48;0.50;92.40
75893;DHT22;64572;50.950;3.676;2023-03-01T01:22:14;0.40;93.00
75893;DHT22;64572;50.950;3.676;2023-03-01T01:24:40;0.40;93.00
75893;DHT22;64572;50.950;3.676;2023-03-01T01:27:05;0.50;93.30
75893;DHT22;64572;50.950;3.676;2023-03-01T01:29:32;0.40;93.30
75893;DHT22;64572;50.950;3.676;2023-03-01T01:31:58;0.30;93.20
75893;DHT22;64572;50.950;3.676;2023-03-01T01:34:23;0.20;93.40
75893;DHT22;64572;50.950;3.676;2023-03-01T01:36:51;0.30;93.30
75893;DHT22;64572;50.950;3.676;2023-03-01T01:39:19;0.20;93.50
75893;DHT22;64572;50.950;3.676;2023-03-01T01:41:45;0.20;93.80
75893;DHT22;64572;50.950;3.676;2023-03-01T01:44:25;0.10;93.40
75893;DHT22;64572;50.950;3.676;2023-03-01T01:47:02;0.10;93.80
75893;DHT22;64572;50.950;3.676;2023-03-01T01:49:37;0.10;93.90
75893;DHT22;64572;50.950;3.676;2023-03-01T01:54:54;0.20;94.20
75893;DHT22;64572;50.950;3.676;2023-03-01T01:57:26;0.10;94.10
75893;DHT22;64572;50.950;3.676;2023-03-01T01:59:57;0.10;94.10
75893;DHT22;64572;50.950;3.676;2023-03-01T02:02:25;0.10;94.30
75893;DHT22;64572;50.950;3.676;2023-03-01T02:04:55;0.00;94.00
75893;DHT22;64572;50.950;3.676;2023-03-01T02:07:24;0.20;94.80
75893;DHT22;64572;50.950;3.676;2023-03-01T02:09:52;0.10;94.30
75893;DHT22;64572;50.950;3.676;2023-03-01T02:12:21;0.10;94.00
75893;DHT22;64572;50.950;3.676;2023-03-01T02:14:48;0.10;94.00
75893;DHT22;64572;50.950;3.676;2023-03-01T02:17:16;0.00;94.70
75893;DHT22;64572;50.950;3.676;2023-03-01T02:22:22;-0.10;95.50
75893;DHT22;64572;50.950;3.676;2023-03-01T02:27:41;-0.10;95.30
75893;DHT22;64572;50.950;3.676;2023-03-01T02:30:10;-0.10;95.10
75893;DHT22;64572;50.950;3.676;2023-03-01T02:32:39;-0.10;95.00
75893;DHT22;64572;50.950;3.676;2023-03-01T02:35:09;-0.10;95.10
75893;DHT22;64572;50.950;3.676;2023-03-01T02:37:36;-0.10;95.10
75893;DHT22;64572;50.950;3.676;2023-03-01T02:40:06;0.00;95.20
75893;DHT22;64572;50.950;3.676;2023-03-01T02:42:41;-0.10;95.50
75893;DHT22;64572;50.950;3.676;2023-03-01T02:45:09;-0.10;95.80
75893;DHT22;64572;50.950;3.676;2023-03-01T02:47:36;-0.10;95.70
75893;DHT22;64572;50.950;3.676;2023-03-01T02:50:01;-0.10;95.90
75893;DHT22;64572;50.950;3.676;2023-03-01T02:52:36;-0.10;95.80
75893;DHT22;64572;50.950;3.676;2023-03-01T02:55:06;-0.10;95.80
75893;DHT22;64572;50.950;3.676;2023-03-01T02:57:35;-0.10;95.90
75893;DHT22;64572;50.950;3.676;2023-03-01T03:00:07;-0.10;95.80
75893;DHT22;64572;50.950;3.676;2023-03-01T03:02:34;-0.10;96.20
75893;DHT22;64572;50.950;3.676;2023-03-01T03:05:11;-0.20;96.40
75893;DHT22;64572;50.950;3.676;2023-03-01T03:07:39;-0.40;97.20
75893;DHT22;64572;50.950;3.676;2023-03-01T03:10:05;-0.30;97.30
75893;DHT22;64572;50.950;3.676;2023-03-01T03:12:31;-0.30;97.60
75893;DHT22;64572;50.950;3.676;2023-03-01T03:14:57;-0.30;97.30
75893;DHT22;64572;50.950;3.676;2023-03-01T03:17:23;-0.30;97.80
75893;DHT22;64572;50.950;3.676;2023-03-01T03:19:49;-0.20;98.00
75893;DHT22;64572;50.950;3.676;2023-03-01T03:22:14;-0.20;97.80
75893;DHT22;64572;50.950;3.676;2023-03-01T03:24:40;-0.10;97.60
75893;DHT22;64572;50.950;3.676;2023-03-01T03:27:06;-0.10;97.80
75893;DHT22;64572;50.950;3.676;2023-03-01T03:29:33;-0.10;97.80
75893;DHT22;64572;50.950;3.676;2023-03-01T03:31:58;0.00;97.40
75893;DHT22;64572;50.950;3.676;2023-03-01T03:34:24;-0.10;96.90
75893;DHT22;64572;50.950;3.676;2023-03-01T03:36:56;-0.20;97.40
75893;DHT22;64572;50.950;3.676;2023-03-01T03:39:26;-0.20;97.70
75893;DHT22;64572;50.950;3.676;2023-03-01T03:41:52;-0.30;98.00
75893;DHT22;64572;50.950;3.676;2023-03-01T03:44:19;-0.20;97.90
75893;DHT22;64572;50.950;3.676;2023-03-01T03:46:44;-0.20;98.10
75893;DHT22;64572;50.950;3.676;2023-03-01T03:49:10;-0.20;97.80
75893;DHT22;64572;50.950;3.676;2023-03-01T03:51:36;-0.10;98.20
75893;DHT22;64572;50.950;3.676;2023-03-01T03:54:01;-0.20;97.80
75893;DHT22;64572;50.950;3.676;2023-03-01T03:56:27;-0.30;98.10
75893;DHT22;64572;50.950;3.676;2023-03-01T03:58:53;-0.30;97.60
75893;DHT22;64572;50.950;3.676;2023-03-01T04:01:18;-0.30;97.60
75893;DHT22;64572;50.950;3.676;2023-03-01T04:03:44;-0.20;97.40
75893;DHT22;64572;50.950;3.676;2023-03-01T04:06:13;-0.20;97.20
75893;DHT22;64572;50.950;3.676;2023-03-01T04:08:39;-0.20;97.60
75893;DHT22;64572;50.950;3.676;2023-03-01T04:11:06;-0.30;97.60
75893;DHT22;64572;50.950;3.676;2023-03-01T04:13:52;-0.30;98.40
75893;DHT22;64572;50.950;3.676;2023-03-01T04:16:18;-0.30;97.80
75893;DHT22;64572;50.950;3.676;2023-03-01T04:18:44;-0.30;97.90
75893;DHT22;64572;50.950;3.676;2023-03-01T04:21:09;-0.30;97.90
75893;DHT22;64572;50.950;3.676;2023-03-01T04:23:36;-0.30;98.10
75893;DHT22;64572;50.950;3.676;2023-03-01T04:26:03;-0.40;98.20
75893;DHT22;64572;50.950;3.676;2023-03-01T04:28:31;-0.40;98.10
75893;DHT22;64572;50.950;3.676;2023-03-01T04:31:15;-0.40;98.40
75893;DHT22;64572;50.950;3.676;2023-03-01T04:33:43;-0.40;98.40
75893;DHT22;64572;50.950;3.676;2023-03-01T04:36:10;-0.30;98.50
75893;DHT22;64572;50.950;3.676;2023-03-01T04:38:40;-0.50;98.60
75893;DHT22;64572;50.950;3.676;2023-03-01T04:41:08;-0.40;99.00
75893;DHT22;64572;50.950;3.676;2023-03-01T04:43:34;-0.40;99.30
75893;DHT22;64572;50.950;3.676;2023-03-01T04:46:05;-0.50;99.40
75893;DHT22;64572;50.950;3.676;2023-03-01T04:48:38;-0.40;99.20
75893;DHT22;64572;50.950;3.676;2023-03-01T04:51:04;-0.40;99.40
75893;DHT22;64572;50.950;3.676;2023-03-01T04:53:31;-0.40;99.80
75893;DHT22;64572;50.950;3.676;2023-03-01T04:55:58;-0.40;99.90
75893;DHT22;64572;50.950;3.676;2023-03-01T04:58:25;-0.40;99.90
75893;DHT22;64572;50.950;3.676;2023-03-01T05:00:52;-0.30;99.90
75893;DHT22;64572;50.950;3.676;2023-03-01T05:03:19;-0.30;99.90
75893;DHT22;64572;50.950;3.676;2023-03-01T05:05:47;-0.30;99.90
75893;DHT22;64572;50.950;3.676;2023-03-01T05:08:13;-0.30;99.90
75893;DHT22;64572;50.950;3.676;2023-03-01T05:10:52;-0.30;99.90
75893;DHT22;64572;50.950;3.676;2023-03-01T05:13:19;-0.20;99.90
75893;DHT22;64572;50.950;3.676;2023-03-01T05:15:54;-0.20;99.90
75893;DHT22;64572;50.950;3.676;2023-03-01T05:18:20;-0.30;99.90
75893;DHT22;64572;50.950;3.676;2023-03-01T05:20:46;-0.30;99.90
75893;DHT22;64572;50.950;3.676;2023-03-01T05:23:12;-0.30;99.90
75893;DHT22;64572;50.950;3.676;2023-03-01T05:25:38;-0.30;99.90
75893;DHT22;64572;50.950;3.676;2023-03-01T05:28:08;-0.30;99.90
75893;DHT22;64572;50.950;3.676;2023-03-01T05:30:35;-0.30;99.90
75893;DHT22;64572;50.950;3.676;2023-03-01T05:33:01;-0.30;99.90
75893;DHT22;64572;50.950;3.676;2023-03-01T05:35:27;-0.40;99.90
75893;DHT22;64572;50.950;3.676;2023-03-01T05:37:53;-0.30;99.90
75893;DHT22;64572;50.950;3.676;2023-03-01T05:40:22;-0.20;99.90
75893;DHT22;64572;50.950;3.676;2023-03-01T05:42:53;-0.30;99.90
75893;DHT22;64572;50.950;3.676;2023-03-01T05:45:23;-0.30;99.90
75893;DHT22;64572;50.950;3.676;2023-03-01T05:47:49;-0.30;99.90
75893;DHT22;64572;50.950;3.676;2023-03-01T05:50:24;-0.30;99.90
75893;DHT22;64572;50.950;3.676;2023-03-01T05:52:56;-0.30;99.90
75893;DHT22;64572;50.950;3.676;2023-03-01T05:55:22;-0.30;99.90
75893;DHT22;64572;50.950;3.676;2023-03-01T05:57:48;-0.20;99.90
75893;DHT22;64572;50.950;3.676;2023-03-01T06:00:16;-0.10;99.90
75893;DHT22;64572;50.950;3.676;2023-03-01T06:02:42;-0.20;99.90
75893;DHT22;64572;50.950;3.676;2023-03-01T06:05:10;-0.10;99.90
75893;DHT22;64572;50.950;3.676;2023-03-01T06:07:36;-0.20;99.90
75893;DHT22;64572;50.950;3.676;2023-03-01T06:10:06;-0.20;99.90
75893;DHT22;64572;50.950;3.676;2023-03-01T06:12:33;-0.20;99.90
75893;DHT22;64572;50.950;3.676;2023-03-01T06:14:59;-0.40;99.90
75893;DHT22;64572;50.950;3.676;2023-03-01T06:17:25;-0.40;99.90
75893;DHT22;64572;50.950;3.676;2023-03-01T06:19:51;-0.30;99.90
75893;DHT22;64572;50.950;3.676;2023-03-01T06:22:17;-0.30;99.90
75893;DHT22;64572;50.950;3.676;2023-03-01T06:24:42;-0.30;99.90
75893;DHT22;64572;50.950;3.676;2023-03-01T06:27:08;-0.40;99.90
75893;DHT22;64572;50.950;3.676;2023-03-01T06:29:33;-0.40;99.90
75893;DHT22;64572;50.950;3.676;2023-03-01T06:31:59;-0.40;99.90
75893;DHT22;64572;50.950;3.676;2023-03-01T06:34:25;-0.40;99.90
75893;DHT22;64572;50.950;3.676;2023-03-01T06:36:50;-0.40;99.90
75893;DHT22;64572;50.950;3.676;2023-03-01T06:39:16;-0.40;99.90
75893;DHT22;64572;50.950;3.676;2023-03-01T06:41:43;-0.30;99.90
75893;DHT22;64572;50.950;3.676;2023-03-01T06:44:09;-0.30;99.90
75893;DHT22;64572;50.950;3.676;2023-03-01T06:46:34;-0.30;99.90
75893;DHT22;64572;50.950;3.676;2023-03-01T06:49:00;-0.30;99.90
75893;DHT22;64572;50.950;3.676;2023-03-01T06:51:26;-0.30;99.90
75893;DHT22;64572;50.950;3.676;2023-03-01T06:53:51;-0.40;99.90
75893;DHT22;64572;50.950;3.676;2023-03-01T06:56:17;-0.40;99.90
75893;DHT22;64572;50.950;3.676;2023-03-01T06:58:42;-0.40;99.90
75893;DHT22;64572;50.950;3.676;2023-03-01T07:01:09;-0.40;99.90
75893;DHT22;64572;50.950;3.676;2023-03-01T07:03:34;-0.40;99.90
75893;DHT22;64572;50.950;3.676;2023-03-01T07:06:00;-0.40;99.90
75893;DHT22;64572;50.950;3.676;2023-03-01T07:08:26;-0.30;99.60
75893;DHT22;64572;50.950;3.676;2023-03-01T07:10:58;-0.30;99.70
75893;DHT22;64572;50.950;3.676;2023-03-01T07:13:24;-0.20;99.80
75893;DHT22;64572;50.950;3.676;2023-03-01T07:15:50;-0.10;99.70
75893;DHT22;64572;50.950;3.676;2023-03-01T07:18:16;-0.20;99.80
75893;DHT22;64572;50.950;3.676;2023-03-01T07:20:41;-0.20;99.90
75893;DHT22;64572;50.950;3.676;2023-03-01T07:23:07;-0.20;99.90
75893;DHT22;64572;50.950;3.676;2023-03-01T07:25:33;-0.10;99.90
75893;DHT22;64572;50.950;3.676;2023-03-01T07:27:59;0.10;99.90
75893;DHT22;64572;50.950;3.676;2023-03-01T07:30:25;0.20;99.90
75893;DHT22;64572;50.950;3.676;2023-03-01T07:32:52;0.30;99.80
75893;DHT22;64572;50.950;3.676;2023-03-01T07:35:18;0.40;99.60
75893;DHT22;64572;50.950;3.676;2023-03-01T07:37:44;0.30;99.70
75893;DHT22;64572;50.950;3.676;2023-03-01T07:40:10;0.30;99.70
75893;DHT22;64572;50.950;3.676;2023-03-01T07:42:36;0.40;99.40
75893;DHT22;64572;50.950;3.676;2023-03-01T07:45:03;0.70;99.00
75893;DHT22;64572;50.950;3.676;2023-03-01T07:47:29;0.70;98.80
75893;DHT22;64572;50.950;3.676;2023-03-01T07:49:55;0.60;98.90
75893;DHT22;64572;50.950;3.676;2023-03-01T07:52:20;0.70;98.80
75893;DHT22;64572;50.950;3.676;2023-03-01T07:54:46;0.70;98.90
75893;DHT22;64572;50.950;3.676;2023-03-01T07:57:12;0.80;98.60
75893;DHT22;64572;50.950;3.676;2023-03-01T07:59:37;0.80;98.60
75893;DHT22;64572;50.950;3.676;2023-03-01T08:02:03;0.90;98.60
75893;DHT22;64572;50.950;3.676;2023-03-01T08:04:29;0.90;98.70
75893;DHT22;64572;50.950;3.676;2023-03-01T08:06:55;1.10;98.30
75893;DHT22;64572;50.950;3.676;2023-03-01T08:09:21;1.10;98.20
75893;DHT22;64572;50.950;3.676;2023-03-01T08:11:47;1.20;97.90
75893;DHT22;64572;50.950;3.676;2023-03-01T08:14:12;1.30;97.70
75893;DHT22;64572;50.950;3.676;2023-03-01T08:16:38;1.40;97.30
75893;DHT22;64572;50.950;3.676;2023-03-01T08:19:06;1.40;97.40
75893;DHT22;64572;50.950;3.676;2023-03-01T08:21:32;1.40;96.90
75893;DHT22;64572;50.950;3.676;2023-03-01T08:24:03;1.50;96.70
75893;DHT22;64572;50.950;3.676;2023-03-01T08:26:29;1.60;96.50
75893;DHT22;64572;50.950;3.676;2023-03-01T08:28:54;1.80;95.70
75893;DHT22;64572;50.950;3.676;2023-03-01T08:31:26;1.80;96.00
75893;DHT22;64572;50.950;3.676;2023-03-01T08:33:55;1.90;95.40
75893;DHT22;64572;50.950;3.676;2023-03-01T08:36:40;2.00;95.70
75893;DHT22;64572;50.950;3.676;2023-03-01T08:39:06;2.40;94.50
75893;DHT22;64572;50.950;3.676;2023-03-01T08:41:32;3.10;93.50
75893;DHT22;64572;50.950;3.676;2023-03-01T08:43:58;3.50;92.60
75893;DHT22;64572;50.950;3.676;2023-03-01T08:46:36;3.50;92.20
75893;DHT22;64572;50.950;3.676;2023-03-01T08:49:06;3.50;92.40
75893;DHT22;64572;50.950;3.676;2023-03-01T08:51:33;3.50;92.90
75893;DHT22;64572;50.950;3.676;2023-03-01T08:54:03;3.40;92.60
75893;DHT22;64572;50.950;3.676;2023-03-01T08:56:29;3.40;92.00
75893;DHT22;64572;50.950;3.676;2023-03-01T08:58:55;3.40;92.50
75893;DHT22;64572;50.950;3.676;2023-03-01T09:01:20;3.50;91.60
75893;DHT22;64572;50.950;3.676;2023-03-01T09:03:46;4.10;89.40
75893;DHT22;64572;50.950;3.676;2023-03-01T09:06:13;4.30;88.20
75893;DHT22;64572;50.950;3.676;2023-03-01T09:08:43;4.60;89.10
75893;DHT22;64572;50.950;3.676;2023-03-01T09:11:12;5.00;84.00
75893;DHT22;64572;50.950;3.676;2023-03-01T09:13:37;5.40;83.80
75893;DHT22;64572;50.950;3.676;2023-03-01T09:16:05;6.60;77.80
75893;DHT22;64572;50.950;3.676;2023-03-01T09:18:31;7.40;73.20
75893;DHT22;64572;50.950;3.676;2023-03-01T09:21:05;9.30;67.00
75893;DHT22;64572;50.950;3.676;2023-03-01T09:23:39;9.40;61.90
75893;DHT22;64572;50.950;3.676;2023-03-01T09:26:07;9.20;64.40
75893;DHT22;64572;50.950;3.676;2023-03-01T09:28:34;8.90;64.80
75893;DHT22;64572;50.950;3.676;2023-03-01T09:31:01;9.20;63.00
75893;DHT22;64572;50.950;3.676;2023-03-01T09:33:28;9.50;62.80
75893;DHT22;64572;50.950;3.676;2023-03-01T09:36:02;8.20;65.40
75893;DHT22;64572;50.950;3.676;2023-03-01T09:38:29;8.90;64.00
75893;DHT22;64572;50.950;3.676;2023-03-01T09:40:55;9.60;61.80
75893;DHT22;64572;50.950;3.676;2023-03-01T09:45:54;9.80;59.50
75893;DHT22;64572;50.950;3.676;2023-03-01T09:48:24;11.10;57.90
75893;DHT22;64572;50.950;3.676;2023-03-01T09:50:51;12.10;49.60
75893;DHT22;64572;50.950;3.676;2023-03-01T09:53:23;13.20;48.30
75893;DHT22;64572;50.950;3.676;2023-03-01T09:56:39;14.30;45.10
75893;DHT22;64572;50.950;3.676;2023-03-01T09:58:51;13.70;46.10
75893;DHT22;64572;50.950;3.676;2023-03-01T10:01:41;13.20;44.00
75893;DHT22;64572;50.950;3.676;2023-03-01T10:04:28;12.80;45.40
75893;DHT22;64572;50.950;3.676;2023-03-01T10:09:49;13.00;45.70
75893;DHT22;64572;50.950;3.676;2023-03-01T10:12:23;14.00;44.00
75893;DHT22;64572;50.950;3.676;2023-03-01T10:17:37;13.50;44.20
75893;DHT22;64572;50.950;3.676;2023-03-01T10:20:17;13.80;42.90
75893;DHT22;64572;50.950;3.676;2023-03-01T10:22:43;13.70;41.40
75893;DHT22;64572;50.950;3.676;2023-03-01T10:25:14;13.10;44.50
75893;DHT22;64572;50.950;3.676;2023-03-01T10:27:53;14.00;41.40
75893;DHT22;64572;50.950;3.676;2023-03-01T10:30:37;14.10;41.20
75893;DHT22;64572;50.950;3.676;2023-03-01T10:33:13;14.20;40.60
75893;DHT22;64572;50.950;3.676;2023-03-01T10:35:40;13.50;42.30
75893;DHT22;64572;50.950;3.676;2023-03-01T10:38:13;13.70;43.80
75893;DHT22;64572;50.950;3.676;2023-03-01T10:43:23;15.50;41.00
75893;DHT22;64572;50.950;3.676;2023-03-01T10:45:49;15.20;38.80
75893;DHT22;64572;50.950;3.676;2023-03-01T10:48:20;14.90;39.00
75893;DHT22;64572;50.950;3.676;2023-03-01T10:51:05;16.10;39.20
75893;DHT22;64572;50.950;3.676;2023-03-01T10:53:49;17.60;36.60
75893;DHT22;64572;50.950;3.676;2023-03-01T10:56:16;19.00;34.50
75893;DHT22;64572;50.950;3.676;2023-03-01T11:06:31;13.60;38.60
75893;DHT22;64572;50.950;3.676;2023-03-01T11:09:19;13.90;39.40
75893;DHT22;64572;50.950;3.676;2023-03-01T11:11:45;12.60;41.70
75893;DHT22;64572;50.950;3.676;2023-03-01T11:14:22;11.70;44.30
75893;DHT22;64572;50.950;3.676;2023-03-01T11:17:01;11.10;44.60
75893;DHT22;64572;50.950;3.676;2023-03-01T11:19:28;12.00;44.20
75893;DHT22;64572;50.950;3.676;2023-03-01T11:24:44;12.60;42.50
75893;DHT22;64572;50.950;3.676;2023-03-01T11:27:27;11.90;43.60
75893;DHT22;64572;50.950;3.676;2023-03-01T11:30:03;13.10;42.80
75893;DHT22;64572;50.950;3.676;2023-03-01T11:32:38;14.10;40.90
75893;DHT22;64572;50.950;3.676;2023-03-01T11:35:21;13.70;40.10
75893;DHT22;64572;50.950;3.676;2023-03-01T11:40:42;14.70;38.60
75893;DHT22;64572;50.950;3.676;2023-03-01T11:51:33;19.80;32.70
75893;DHT22;64572;50.950;3.676;2023-03-01T11:56:29;22.90;29.60
75893;DHT22;64572;50.950;3.676;2023-03-01T11:59:02;22.50;29.30
75893;DHT22;64572;50.950;3.676;2023-03-01T12:10:27;22.30;29.70
75893;DHT22;64572;50.950;3.676;2023-03-01T12:13:38;21.50;29.80
75893;DHT22;64572;50.950;3.676;2023-03-01T12:22:21;20.80;30.40
75893;DHT22;64572;50.950;3.676;2023-03-01T12:34:01;21.10;29.40
75893;DHT22;64572;50.950;3.676;2023-03-01T12:36:36;21.70;29.70
75893;DHT22;64572;50.950;3.676;2023-03-01T12:50:47;19.30;31.40
75893;DHT22;64572;50.950;3.676;2023-03-01T12:53:27;19.90;29.80
75893;DHT22;64572;50.950;3.676;2023-03-01T12:56:06;19.80;30.00
75893;DHT22;64572;50.950;3.676;2023-03-01T13:01:31;22.30;28.50
75893;DHT22;64572;50.950;3.676;2023-03-01T13:04:02;22.90;28.10
75893;DHT22;64572;50.950;3.676;2023-03-01T13:06:35;22.70;28.20
75893;DHT22;64572;50.950;3.676;2023-03-01T13:11:35;20.20;30.00
75893;DHT22;64572;50.950;3.676;2023-03-01T13:16:45;21.70;28.90
75893;DHT22;64572;50.950;3.676;2023-03-01T13:19:25;22.00;28.70
75893;DHT22;64572;50.950;3.676;2023-03-01T13:21:53;21.80;28.80
75893;DHT22;64572;50.950;3.676;2023-03-01T13:24:40;21.00;28.80
75893;DHT22;64572;50.950;3.676;2023-03-01T13:29:45;22.10;28.40
75893;DHT22;64572;50.950;3.676;2023-03-01T13:32:28;22.10;28.30
75893;DHT22;64572;50.950;3.676;2023-03-01T13:37:43;22.30;27.70
75893;DHT22;64572;50.950;3.676;2023-03-01T13:42:45;21.10;29.30
75893;DHT22;64572;50.950;3.676;2023-03-01T13:45:34;21.10;28.90
75893;DHT22;64572;50.950;3.676;2023-03-01T13:48:10;20.80;29.10
75893;DHT22;64572;50.950;3.676;2023-03-01T13:50:46;21.10;28.60
75893;DHT22;64572;50.950;3.676;2023-03-01T13:53:19;21.40;28.80
75893;DHT22;64572;50.950;3.676;2023-03-01T13:55:48;20.40;29.10
75893;DHT22;64572;50.950;3.676;2023-03-01T13:58:22;20.90;29.70
75893;DHT22;64572;50.950;3.676;2023-03-01T14:00:56;21.20;29.50
75893;DHT22;64572;50.950;3.676;2023-03-01T14:03:22;20.40;29.30
75893;DHT22;64572;50.950;3.676;2023-03-01T14:06:12;20.00;30.00
75893;DHT22;64572;50.950;3.676;2023-03-01T14:08:38;19.50;29.80
75893;DHT22;64572;50.950;3.676;2023-03-01T14:11:18;20.70;29.90
75893;DHT22;64572;50.950;3.676;2023-03-01T14:19:14;21.40;27.60
75893;DHT22;64572;50.950;3.676;2023-03-01T14:21:41;19.80;29.40
75893;DHT22;64572;50.950;3.676;2023-03-01T14:24:21;20.10;29.10
75893;DHT22;64572;50.950;3.676;2023-03-01T14:26:49;19.70;29.80
75893;DHT22;64572;50.950;3.676;2023-03-01T14:29:35;20.10;29.80
75893;DHT22;64572;50.950;3.676;2023-03-01T14:34:35;21.20;28.80
75893;DHT22;64572;50.950;3.676;2023-03-01T14:39:43;21.20;28.80
75893;DHT22;64572;50.950;3.676;2023-03-01T14:42:09;20.10;29.00
75893;DHT22;64572;50.950;3.676;2023-03-01T14:44:35;21.30;29.00
75893;DHT22;64572;50.950;3.676;2023-03-01T14:47:02;21.60;28.50
75893;DHT22;64572;50.950;3.676;2023-03-01T14:49:30;22.60;28.50
75893;DHT22;64572;50.950;3.676;2023-03-01T14:52:07;21.60;28.60
75893;DHT22;64572;50.950;3.676;2023-03-01T14:54:51;21.00;29.30
75893;DHT22;64572;50.950;3.676;2023-03-01T14:57:23;20.70;29.30
75893;DHT22;64572;50.950;3.676;2023-03-01T14:59:54;20.90;29.00
75893;DHT22;64572;50.950;3.676;2023-03-01T15:02:25;21.60;29.20
75893;DHT22;64572;50.950;3.676;2023-03-01T15:04:55;19.70;30.00
75893;DHT22;64572;50.950;3.676;2023-03-01T15:07:29;18.70;31.00
75893;DHT22;64572;50.950;3.676;2023-03-01T15:09:55;17.80;31.90
75893;DHT22;64572;50.950;3.676;2023-03-01T15:14:53;14.10;36.80
75893;DHT22;64572;50.950;3.676;2023-03-01T15:17:36;13.00;39.30
75893;DHT22;64572;50.950;3.676;2023-03-01T15:20:06;11.80;41.40
75893;DHT22;64572;50.950;3.676;2023-03-01T15:22:43;11.20;42.90
75893;DHT22;64572;50.950;3.676;2023-03-01T15:25:18;10.80;44.90
75893;DHT22;64572;50.950;3.676;2023-03-01T15:27:49;10.40;45.90
75893;DHT22;64572;50.950;3.676;2023-03-01T15:30:25;10.00;46.80
75893;DHT22;64572;50.950;3.676;2023-03-01T15:35:51;10.00;47.50
75893;DHT22;64572;50.950;3.676;2023-03-01T15:38:51;9.90;47.90
75893;DHT22;64572;50.950;3.676;2023-03-01T15:41:27;9.90;48.00
75893;DHT22;64572;50.950;3.676;2023-03-01T15:43:57;9.60;48.60
75893;DHT22;64572;50.950;3.676;2023-03-01T15:46:32;9.50;49.20
75893;DHT22;64572;50.950;3.676;2023-03-01T15:49:02;9.10;50.10
75893;DHT22;64572;50.950;3.676;2023-03-01T15:51:31;8.90;50.20
75893;DHT22;64572;50.950;3.676;2023-03-01T15:53:59;9.50;50.00
75893;DHT22;64572;50.950;3.676;2023-03-01T15:56:26;10.10;48.30
75893;DHT22;64572;50.950;3.676;2023-03-01T15:58:51;10.20;47.00
75893;DHT22;64572;50.950;3.676;2023-03-01T16:01:17;10.00;48.40
75893;DHT22;64572;50.950;3.676;2023-03-01T16:03:44;9.80;48.80
75893;DHT22;64572;50.950;3.676;2023-03-01T16:06:10;9.40;49.20
75893;DHT22;64572;50.950;3.676;2023-03-01T16:08:37;9.20;49.30
75893;DHT22;64572;50.950;3.676;2023-03-01T16:11:05;9.00;51.30
75893;DHT22;64572;50.950;3.676;2023-03-01T16:13:34;8.70;52.30
75893;DHT22;64572;50.950;3.676;2023-03-01T16:16:00;8.80;52.20
75893;DHT22;64572;50.950;3.676;2023-03-01T16:18:25;8.80;52.20
75893;DHT22;64572;50.950;3.676;2023-03-01T16:20:51;8.70;52.50
75893;DHT22;64572;50.950;3.676;2023-03-01T16:23:18;8.60;53.50
75893;DHT22;64572;50.950;3.676;2023-03-01T16:25:43;8.60;54.10
75893;DHT22;64572;50.950;3.676;2023-03-01T16:28:09;8.70;53.60
75893;DHT22;64572;50.950;3.676;2023-03-01T16:30:36;8.50;54.40
75893;DHT22;64572;50.950;3.676;2023-03-01T16:33:02;8.50;55.40
75893;DHT22;64572;50.950;3.676;2023-03-01T16:35:27;8.30;55.20
75893;DHT22;64572;50.950;3.676;2023-03-01T16:37:54;8.30;55.80
75893;DHT22;64572;50.950;3.676;2023-03-01T16:40:25;8.30;56.80
75893;DHT22;64572;50.950;3.676;2023-03-01T16:42:52;8.20;56.20
75893;DHT22;64572;50.950;3.676;2023-03-01T16:45:18;8.20;57.40
75893;DHT22;64572;50.950;3.676;2023-03-01T16:47:45;8.00;56.20
75893;DHT22;64572;50.950;3.676;2023-03-01T16:50:11;7.80;56.90
75893;DHT22;64572;50.950;3.676;2023-03-01T16:52:37;7.80;57.70
75893;DHT22;64572;50.950;3.676;2023-03-01T16:55:05;7.70;58.10
75893;DHT22;64572;50.950;3.676;2023-03-01T16:57:34;7.80;58.40
75893;DHT22;64572;50.950;3.676;2023-03-01T17:00:00;7.70;59.70
75893;DHT22;64572;50.950;3.676;2023-03-01T17:02:25;7.70;59.40
75893;DHT22;64572;50.950;3.676;2023-03-01T17:04:54;7.60;59.80
75893;DHT22;64572;50.950;3.676;2023-03-01T17:07:20;7.50;60.30
75893;DHT22;64572;50.950;3.676;2023-03-01T17:09:45;7.30;61.10
75893;DHT22;64572;50.950;3.676;2023-03-01T17:12:15;7.30;61.80
75893;DHT22;64572;50.950;3.676;2023-03-01T17:14:41;7.20;61.50
75893;DHT22;64572;50.950;3.676;2023-03-01T17:17:10;7.10;62.90
75893;DHT22;64572;50.950;3.676;2023-03-01T17:19:36;7.10;63.10
75893;DHT22;64572;50.950;3.676;2023-03-01T17:22:09;7.20;63.00
75893;DHT22;64572;50.950;3.676;2023-03-01T17:24:36;7.10;64.00
75893;DHT22;64572;50.950;3.676;2023-03-01T17:27:02;7.00;64.10
75893;DHT22;64572;50.950;3.676;2023-03-01T17:29:28;7.10;64.30
75893;DHT22;64572;50.950;3.676;2023-03-01T17:31:54;7.10;62.90
75893;DHT22;64572;50.950;3.676;2023-03-01T17:34:21;7.10;64.00
75893;DHT22;64572;50.950;3.676;2023-03-01T17:36:47;7.20;63.40
75893;DHT22;64572;50.950;3.676;2023-03-01T17:39:15;7.10;63.70
75893;DHT22;64572;50.950;3.676;2023-03-01T17:41:40;7.00;63.10